createdAt,value
2019-04-29T00:01:20.523Z,85.20
2019-04-29T00:03:55.671Z,85.50
2019-04-29T00:06:26.166Z,84.80
2019-04-29T00:08:57.547Z,85.10
2019-04-29T00:11:27.632Z,84.80
2019-04-29T00:13:58.630Z,84.40
2019-04-29T00:16:37.221Z,84.70
2019-04-29T00:19:09.462Z,85.20
2019-04-29T00:21:53.888Z,85.50
2019-04-29T00:24:23.503Z,85.50
2019-04-29T00:26:53.113Z,85.30
2019-04-29T00:29:22.789Z,85.50
2019-04-29T00:31:56.352Z,85.10
2019-04-29T00:37:45.098Z,85.80
2019-04-29T00:40:34.010Z,85.90
2019-04-29T00:43:27.158Z,86.30
2019-04-29T00:45:59.822Z,85.30
2019-04-29T00:48:30.468Z,85.60
2019-04-29T00:51:02.606Z,86.30
2019-04-29T00:53:38.295Z,86.60
2019-04-29T00:56:12.447Z,86.50
2019-04-29T00:58:45.960Z,86.40
2019-04-29T01:01:19.614Z,85.40
2019-04-29T01:03:55.151Z,84.60
2019-04-29T01:06:24.588Z,84.90
2019-04-29T01:08:57.585Z,85.30
2019-04-29T01:11:27.846Z,85.80
2019-04-29T01:13:57.214Z,86.50
2019-04-29T01:16:27.925Z,87.00
2019-04-29T01:18:58.917Z,86.70
2019-04-29T01:21:30.699Z,85.70
2019-04-29T01:24:00.695Z,85.90
2019-04-29T01:26:48.834Z,85.80
2019-04-29T01:29:23.546Z,86.40
2019-04-29T01:31:56.336Z,86.40
2019-04-29T01:34:32.324Z,86.60
2019-04-29T01:37:02.143Z,86.40
2019-04-29T01:39:46.450Z,86.60
2019-04-29T01:42:21.741Z,86.50
2019-04-29T01:44:59.750Z,86.60
2019-04-29T01:47:35.249Z,86.10
2019-04-29T01:50:07.775Z,85.10
2019-04-29T01:52:41.576Z,85.10
2019-04-29T01:55:13.035Z,86.00
2019-04-29T01:57:49.644Z,86.60
2019-04-29T02:00:20.954Z,87.00
2019-04-29T02:02:56.835Z,87.30
2019-04-29T02:05:42.645Z,87.20
2019-04-29T02:08:12.731Z,86.90
2019-04-29T02:10:42.164Z,87.10
2019-04-29T02:13:13.252Z,87.20
2019-04-29T02:15:47.117Z,87.20
2019-04-29T02:18:17.903Z,86.90
2019-04-29T02:20:47.358Z,87.00
2019-04-29T02:23:22.887Z,87.10
2019-04-29T02:25:54.344Z,87.20
2019-04-29T02:28:23.595Z,86.90
2019-04-29T02:30:54.648Z,86.50
2019-04-29T02:33:25.034Z,87.30
2019-04-29T02:35:56.719Z,87.30
2019-04-29T02:38:39.571Z,87.20
2019-04-29T02:41:12.781Z,86.80
2019-04-29T02:43:50.271Z,86.90
2019-04-29T02:46:19.839Z,86.60
2019-04-29T02:48:51.901Z,86.40
2019-04-29T02:51:24.513Z,86.60
2019-04-29T02:53:56.274Z,87.10
2019-04-29T02:56:28.635Z,86.90
2019-04-29T02:59:00.110Z,86.80
2019-04-29T03:01:54.753Z,87.60
2019-04-29T03:04:30.344Z,87.70
2019-04-29T03:07:03.391Z,87.80
2019-04-29T03:09:35.281Z,87.50
2019-04-29T03:12:04.890Z,87.00
2019-04-29T03:14:34.831Z,86.40
2019-04-29T03:17:08.664Z,86.40
2019-04-29T03:19:39.796Z,86.90
2019-04-29T03:22:10.830Z,87.30
2019-04-29T03:24:42.205Z,87.60
2019-04-29T03:27:11.670Z,87.10
2019-04-29T03:29:41.274Z,86.90
2019-04-29T03:32:15.748Z,87.60
2019-04-29T03:34:45.318Z,87.90
2019-04-29T03:37:19.402Z,87.60
2019-04-29T03:39:51.585Z,87.60
2019-04-29T03:42:26.212Z,87.70
2019-04-29T03:44:56.768Z,87.60
2019-04-29T03:47:27.203Z,87.60
2019-04-29T03:49:56.798Z,86.90
2019-04-29T03:52:27.232Z,87.20
2019-04-29T03:54:58.760Z,87.00
2019-04-29T03:57:31.686Z,86.60
2019-04-29T04:00:08.237Z,86.90
2019-04-29T04:02:57.049Z,86.60
2019-04-29T04:05:32.234Z,86.90
2019-04-29T04:08:23.090Z,86.80
2019-04-29T04:10:53.979Z,86.70
2019-04-29T04:13:29.687Z,86.30
2019-04-29T04:16:00.661Z,85.80
2019-04-29T04:18:32.747Z,86.10
2019-04-29T04:21:05.319Z,86.50
2019-04-29T04:23:35.713Z,86.40
2019-04-29T04:26:08.073Z,86.10
2019-04-29T04:28:42.728Z,85.60
2019-04-29T04:31:12.157Z,85.70
2019-04-29T04:33:48.467Z,85.20
2019-04-29T04:36:24.272Z,85.80
2019-04-29T04:38:53.741Z,86.20
2019-04-29T04:41:28.228Z,86.10
2019-04-29T04:44:00.398Z,86.70
2019-04-29T04:46:36.060Z,87.70
2019-04-29T04:49:06.551Z,88.10
2019-04-29T04:51:37.141Z,87.50
2019-04-29T04:54:09.741Z,87.40
2019-04-29T04:56:45.720Z,86.40
2019-04-29T04:59:18.644Z,86.60
2019-04-29T05:01:55.738Z,86.90
2019-04-29T05:04:24.945Z,86.60
2019-04-29T05:06:56.339Z,87.00
2019-04-29T05:09:35.098Z,87.00
2019-04-29T05:12:04.701Z,87.00
2019-04-29T05:14:35.164Z,87.60
2019-04-29T05:17:10.106Z,87.60
2019-04-29T05:19:42.964Z,87.40
2019-04-29T05:22:18.886Z,87.40
2019-04-29T05:24:51.163Z,87.40
2019-04-29T05:27:29.655Z,86.80
2019-04-29T05:30:01.938Z,86.50
2019-04-29T05:32:35.605Z,86.30
2019-04-29T05:35:11.695Z,85.80
2019-04-29T05:37:49.575Z,85.50
2019-04-29T05:40:38.732Z,86.10
2019-04-29T05:43:13.377Z,84.50
2019-04-29T05:45:50.071Z,85.20
2019-04-29T05:48:20.990Z,85.30
2019-04-29T05:50:56.479Z,85.40
2019-04-29T05:53:34.888Z,85.60
2019-04-29T05:56:05.371Z,85.60
2019-04-29T05:58:37.963Z,85.30
2019-04-29T06:01:12.384Z,85.40
2019-04-29T06:03:46.470Z,84.90
2019-04-29T06:06:15.937Z,84.20
2019-04-29T06:08:46.050Z,83.50
2019-04-29T06:11:17.707Z,83.70
2019-04-29T06:13:48.246Z,83.70
2019-04-29T06:16:21.012Z,83.60
2019-04-29T06:18:59.675Z,83.10
2019-04-29T06:21:25.008Z,82.90
2019-04-29T06:24:06.247Z,82.50
2019-04-29T06:26:36.405Z,82.30
2019-04-29T06:29:07.430Z,82.30
2019-04-29T06:31:37.746Z,80.80
2019-04-29T06:34:14.626Z,78.60
2019-04-29T06:36:48.105Z,78.80
2019-04-29T06:39:21.543Z,78.20
2019-04-29T06:41:52.642Z,77.40
2019-04-29T06:44:22.009Z,77.00
2019-04-29T06:46:56.311Z,76.80
2019-04-29T06:52:12.958Z,76.40
2019-04-29T06:54:42.403Z,77.40
2019-04-29T06:57:13.661Z,77.50
2019-04-29T06:59:47.418Z,76.60
2019-04-29T07:02:16.376Z,76.20
2019-04-29T07:04:48.252Z,75.20
2019-04-29T07:07:24.446Z,73.90
2019-04-29T07:09:57.192Z,73.90
2019-04-29T07:12:29.637Z,73.70
2019-04-29T07:15:00.878Z,73.30
2019-04-29T07:17:36.501Z,72.60
2019-04-29T07:20:05.825Z,72.70
2019-04-29T07:22:36.881Z,72.30
2019-04-29T07:25:09.686Z,71.20
2019-04-29T07:27:44.252Z,70.70
2019-04-29T07:30:20.591Z,70.40
2019-04-29T07:35:47.739Z,72.20
2019-04-29T07:38:14.560Z,72.40
2019-04-29T07:40:46.258Z,72.00
2019-04-29T07:43:19.866Z,73.20
2019-04-29T07:46:16.161Z,71.00
2019-04-29T07:49:00.904Z,70.30
2019-04-29T07:51:27.887Z,69.70
2019-04-29T07:53:57.357Z,70.40
2019-04-29T07:56:27.882Z,70.70
2019-04-29T07:59:03.000Z,71.10
2019-04-29T08:01:33.664Z,69.20
2019-04-29T08:04:03.348Z,68.10
2019-04-29T08:06:38.100Z,68.40
2019-04-29T08:09:10.496Z,67.70
2019-04-29T08:11:40.659Z,68.30
2019-04-29T08:14:11.572Z,67.90
2019-04-29T08:16:44.782Z,67.50
2019-04-29T08:19:14.756Z,67.30
2019-04-29T08:21:51.206Z,66.20
2019-04-29T08:24:25.624Z,66.40
2019-04-29T08:26:55.965Z,65.10
2019-04-29T08:29:26.108Z,65.90
2019-04-29T08:32:01.886Z,65.20
2019-04-29T08:34:27.936Z,65.20
2019-04-29T08:36:57.794Z,65.60
2019-04-29T08:39:29.337Z,63.80
2019-04-29T08:42:03.751Z,63.10
2019-04-29T08:44:38.903Z,62.50
2019-04-29T08:47:23.663Z,63.30
2019-04-29T08:49:52.375Z,62.50
2019-04-29T08:52:22.172Z,63.00
2019-04-29T08:54:55.410Z,63.40
2019-04-29T08:57:25.813Z,61.60
2019-04-29T08:59:55.476Z,61.40
2019-04-29T09:02:34.448Z,59.90
2019-04-29T09:04:58.536Z,60.10
2019-04-29T09:07:28.096Z,58.40
2019-04-29T09:10:01.760Z,58.40
2019-04-29T09:12:32.071Z,57.50
2019-04-29T09:15:02.601Z,57.10
2019-04-29T09:17:33.526Z,56.60
2019-04-29T09:20:04.078Z,54.60
2019-04-29T09:22:36.204Z,55.00
2019-04-29T09:25:25.703Z,53.60
2019-04-29T09:28:17.685Z,54.50
2019-04-29T09:30:49.005Z,55.30
2019-04-29T09:33:19.043Z,55.60
2019-04-29T09:35:50.639Z,55.70
2019-04-29T09:38:20.181Z,56.30
2019-04-29T09:40:54.642Z,57.20
2019-04-29T09:43:38.875Z,57.70
2019-04-29T09:46:18.313Z,57.40
2019-04-29T09:48:49.503Z,57.60
2019-04-29T09:51:22.892Z,57.50
2019-04-29T09:53:57.169Z,57.30
2019-04-29T09:56:27.857Z,56.80
2019-04-29T09:59:19.798Z,57.20
2019-04-29T10:01:54.943Z,56.60
2019-04-29T10:04:40.597Z,55.90
2019-04-29T10:07:12.188Z,55.50
2019-04-29T10:09:56.410Z,54.50
2019-04-29T10:12:15.173Z,54.40
2019-04-29T10:14:44.808Z,54.20
2019-04-29T10:17:16.713Z,54.60
2019-04-29T10:19:53.799Z,55.10
2019-04-29T10:22:23.652Z,54.50
2019-04-29T10:24:53.392Z,53.30
2019-04-29T10:27:26.766Z,52.80
2019-04-29T10:29:57.141Z,52.70
2019-04-29T10:32:27.039Z,50.70
2019-04-29T10:35:03.774Z,51.00
2019-04-29T10:37:32.669Z,51.00
2019-04-29T10:40:12.693Z,51.20
2019-04-29T10:42:48.301Z,50.90
2019-04-29T10:45:22.006Z,50.70
2019-04-29T10:47:58.415Z,49.60
2019-04-29T10:50:36.402Z,48.60
2019-04-29T10:53:15.481Z,48.00
2019-04-29T10:55:45.612Z,48.20
2019-04-29T10:58:16.658Z,47.70
2019-04-29T11:01:08.456Z,47.70
2019-04-29T11:03:41.588Z,46.30
2019-04-29T11:06:12.018Z,45.70
2019-04-29T11:08:58.287Z,45.90
2019-04-29T11:11:32.676Z,45.60
2019-04-29T11:14:03.167Z,45.40
2019-04-29T11:16:46.142Z,43.70
2019-04-29T11:19:05.645Z,41.70
2019-04-29T11:21:38.987Z,41.20
2019-04-29T11:24:10.212Z,41.30
2019-04-29T11:26:44.774Z,40.70
2019-04-29T11:29:14.484Z,38.80
2019-04-29T11:31:49.080Z,39.20
2019-04-29T11:34:19.033Z,40.10
2019-04-29T11:36:48.431Z,40.40
2019-04-29T11:39:17.956Z,41.60
2019-04-29T11:41:50.033Z,42.20
2019-04-29T11:44:26.013Z,42.70
2019-04-29T11:46:54.152Z,42.80
2019-04-29T11:49:25.623Z,42.30
2019-04-29T11:52:09.292Z,42.70
2019-04-29T11:54:35.077Z,42.00
2019-04-29T11:57:08.353Z,42.20
2019-04-29T11:59:39.514Z,42.20
2019-04-29T12:02:44.244Z,40.20
2019-04-29T12:05:04.225Z,38.40
2019-04-29T12:07:32.493Z,37.10
2019-04-29T12:10:06.518Z,35.80
2019-04-29T12:12:34.851Z,35.70
2019-04-29T12:15:17.682Z,34.10
2019-04-29T12:17:48.976Z,33.20
2019-04-29T12:20:42.426Z,32.60
2019-04-29T12:23:17.358Z,33.80
2019-04-29T12:25:47.014Z,34.60
2019-04-29T12:28:19.804Z,34.70
2019-04-29T12:30:52.153Z,34.90
2019-04-29T12:33:40.674Z,34.50
2019-04-29T12:36:16.424Z,33.50
2019-04-29T12:38:49.593Z,33.20
2019-04-29T12:41:30.276Z,34.10
2019-04-29T12:44:10.395Z,33.20
2019-04-29T12:46:44.562Z,31.90
2019-04-29T12:49:15.812Z,31.90
2019-04-29T12:51:45.832Z,33.10
2019-04-29T12:54:15.807Z,34.60
2019-04-29T12:56:47.933Z,35.40
2019-04-29T12:59:19.957Z,35.70
2019-04-29T13:01:58.819Z,35.90
2019-04-29T13:04:45.132Z,35.80
2019-04-29T13:07:23.132Z,37.20
2019-04-29T13:10:02.002Z,38.20
2019-04-29T13:12:32.580Z,36.90
2019-04-29T13:15:07.918Z,36.00
2019-04-29T13:18:02.656Z,33.90
2019-04-29T13:20:23.356Z,33.60
2019-04-29T13:22:58.998Z,33.10
2019-04-29T13:25:26.874Z,33.60
2019-04-29T13:28:03.792Z,34.30
2019-04-29T13:30:28.968Z,34.80
2019-04-29T13:33:01.138Z,35.00
2019-04-29T13:35:32.808Z,35.80
2019-04-29T13:38:02.435Z,33.50
2019-04-29T13:40:37.461Z,34.60
2019-04-29T13:43:06.455Z,34.50
2019-04-29T13:45:46.992Z,32.60
2019-04-29T13:48:21.055Z,31.30
2019-04-29T13:50:53.237Z,30.40
2019-04-29T13:53:22.867Z,30.40
2019-04-29T13:56:10.326Z,31.50
2019-04-29T13:58:27.154Z,33.30
2019-04-29T14:00:59.942Z,33.60
2019-04-29T14:03:42.039Z,34.10
2019-04-29T14:06:09.168Z,34.80
2019-04-29T14:08:38.569Z,35.70
2019-04-29T14:11:08.165Z,36.40
2019-04-29T14:13:39.000Z,35.80
2019-04-29T14:16:11.983Z,36.00
2019-04-29T14:18:43.643Z,36.60
2019-04-29T14:21:14.237Z,35.70
2019-04-29T14:23:45.875Z,34.90
2019-04-29T14:26:15.414Z,34.20
2019-04-29T14:28:44.830Z,33.40
2019-04-29T14:31:18.665Z,33.60
2019-04-29T14:33:55.790Z,34.40
2019-04-29T14:36:26.360Z,36.20
2019-04-29T14:38:55.870Z,36.80
2019-04-29T14:41:26.515Z,37.70
2019-04-29T14:44:08.596Z,37.70
2019-04-29T14:46:52.150Z,37.70
2019-04-29T14:49:23.950Z,37.50
2019-04-29T14:51:53.552Z,37.60
2019-04-29T14:54:24.362Z,37.90
2019-04-29T14:56:53.929Z,37.80
2019-04-29T14:59:25.133Z,38.10
2019-04-29T15:02:01.972Z,38.60
2019-04-29T15:04:38.233Z,39.20
2019-04-29T15:07:08.088Z,39.30
2019-04-29T15:09:46.779Z,40.20
2019-04-29T15:12:17.198Z,39.60
2019-04-29T15:15:04.211Z,39.20
2019-04-29T15:17:49.619Z,39.00
2019-04-29T15:20:29.643Z,39.10
2019-04-29T15:23:28.334Z,39.00
2019-04-29T15:25:53.559Z,39.30
2019-04-29T15:28:26.139Z,39.50
2019-04-29T15:30:59.592Z,40.00
2019-04-29T15:33:34.348Z,39.80
2019-04-29T15:36:01.800Z,39.30
2019-04-29T15:38:32.916Z,39.40
2019-04-29T15:41:07.460Z,39.60
2019-04-29T15:43:47.406Z,40.00
2019-04-29T15:46:24.187Z,40.50
2019-04-29T15:48:59.127Z,41.40
2019-04-29T15:51:28.921Z,41.80
2019-04-29T15:53:58.394Z,42.40
2019-04-29T15:56:29.227Z,42.30
2019-04-29T16:01:31.105Z,43.60
2019-04-29T16:04:02.679Z,43.70
2019-04-29T16:06:52.003Z,42.40
2019-04-29T16:09:50.785Z,42.80
2019-04-29T16:12:13.949Z,42.60
2019-04-29T16:14:38.444Z,42.80
2019-04-29T16:17:08.093Z,42.80
2019-04-29T16:19:37.630Z,42.50
2019-04-29T16:22:12.951Z,42.50
2019-04-29T16:24:42.156Z,43.00
2019-04-29T16:27:11.596Z,43.70
2019-04-29T16:29:46.089Z,44.30
2019-04-29T16:32:14.035Z,44.40
2019-04-29T16:34:47.029Z,44.60
2019-04-29T16:37:19.219Z,44.70
2019-04-29T16:39:52.553Z,45.00
2019-04-29T16:42:21.934Z,45.40
2019-04-29T16:44:51.454Z,45.50
2019-04-29T16:47:24.667Z,46.00
2019-04-29T16:49:57.592Z,46.40
2019-04-29T16:52:25.554Z,47.10
2019-04-29T16:54:58.919Z,47.10
2019-04-29T16:57:28.078Z,47.30
2019-04-29T17:00:00.591Z,47.20
2019-04-29T17:05:34.070Z,47.00
2019-04-29T17:08:09.246Z,46.70
2019-04-29T17:10:39.513Z,45.60
2019-04-29T17:13:16.712Z,45.30
2019-04-29T17:15:44.479Z,45.50
2019-04-29T17:18:13.769Z,45.50
2019-04-29T17:20:44.356Z,45.00
2019-04-29T17:23:24.107Z,45.00
2019-04-29T17:25:51.257Z,45.00
2019-04-29T17:28:34.635Z,45.50
2019-04-29T17:31:13.609Z,45.70
2019-04-29T17:33:50.200Z,47.10
2019-04-29T17:35:13.770Z,42.80
2019-04-29T17:36:23.953Z,48.30
2019-04-29T17:38:52.788Z,50.60
2019-04-29T17:41:22.409Z,50.90
2019-04-29T17:44:02.372Z,51.80
2019-04-29T17:46:51.123Z,52.10
2019-04-29T17:49:39.443Z,52.10
2019-04-29T17:52:10.580Z,52.80
2019-04-29T17:54:41.667Z,53.00
2019-04-29T17:57:28.266Z,53.60
2019-04-29T18:00:10.755Z,54.10
2019-04-29T18:02:52.551Z,54.60
2019-04-29T18:05:54.494Z,55.10
2019-04-29T18:08:27.708Z,55.30
2019-04-29T18:11:04.734Z,55.20
2019-04-29T18:13:35.351Z,55.80
2019-04-29T18:16:17.461Z,56.90
2019-04-29T18:18:49.164Z,57.20
2019-04-29T18:21:26.208Z,57.30
2019-04-29T18:24:00.375Z,57.20
2019-04-29T18:26:31.490Z,57.60
2019-04-29T18:29:05.664Z,58.10
2019-04-29T18:31:36.578Z,58.60
2019-04-29T18:34:07.112Z,58.90
2019-04-29T18:36:37.597Z,58.50
2019-04-29T18:39:09.472Z,58.70
2019-04-29T18:41:40.058Z,59.00
2019-04-29T18:44:18.896Z,58.10
2019-04-29T18:46:53.211Z,57.80
2019-04-29T18:49:16.409Z,58.00
2019-04-29T18:51:48.091Z,58.20
2019-04-29T18:54:19.682Z,58.10
2019-04-29T18:56:50.560Z,58.60
2019-04-29T18:59:25.274Z,58.90
2019-04-29T19:01:55.902Z,59.10
2019-04-29T19:04:29.941Z,59.00
2019-04-29T19:07:02.465Z,59.00
2019-04-29T19:09:35.837Z,59.00
2019-04-29T19:12:05.376Z,59.10
2019-04-29T19:14:35.425Z,59.20
2019-04-29T19:17:05.211Z,59.40
2019-04-29T19:19:35.908Z,59.40
2019-04-29T19:22:09.304Z,59.60
2019-04-29T19:24:38.900Z,59.30
2019-04-29T19:27:10.007Z,59.30
2019-04-29T19:29:43.361Z,59.40
2019-04-29T19:32:13.266Z,59.30
2019-04-29T19:34:45.810Z,59.30
2019-04-29T19:37:15.950Z,59.10
2019-04-29T19:39:47.792Z,58.90
2019-04-29T19:42:28.654Z,58.20
2019-04-29T19:44:49.545Z,58.50
2019-04-29T19:47:21.845Z,58.40
2019-04-29T19:49:51.413Z,58.30
2019-04-29T19:52:30.490Z,58.50
2019-04-29T19:54:57.378Z,58.20
2019-04-29T19:57:26.486Z,58.60
2019-04-29T19:59:57.061Z,57.70
2019-04-29T20:02:27.381Z,58.10
2019-04-29T20:05:04.617Z,58.10
2019-04-29T20:07:40.960Z,58.10
2019-04-29T20:10:09.883Z,58.50
2019-04-29T20:12:40.638Z,58.50
2019-04-29T20:15:11.642Z,59.00
2019-04-29T20:17:50.034Z,59.20
2019-04-29T20:20:21.987Z,59.40
2019-04-29T20:22:51.902Z,60.00
2019-04-29T20:25:29.824Z,60.20
2019-04-29T20:28:05.498Z,60.30
2019-04-29T20:30:25.354Z,60.50
2019-04-29T20:32:56.105Z,60.90
2019-04-29T20:35:27.358Z,60.90
2019-04-29T20:38:00.297Z,61.20
2019-04-29T20:40:36.275Z,61.70
2019-04-29T20:43:07.807Z,62.10
2019-04-29T20:45:36.299Z,62.30
2019-04-29T20:48:10.848Z,63.10
2019-04-29T20:50:40.731Z,63.70
2019-04-29T20:53:12.390Z,63.60
2019-04-29T20:55:46.299Z,64.00
2019-04-29T20:58:16.364Z,64.10
2019-04-29T21:00:46.241Z,64.60
2019-04-29T21:03:27.285Z,64.50
2019-04-29T21:05:50.307Z,64.60
2019-04-29T21:08:19.843Z,64.90
2019-04-29T21:10:51.775Z,66.30
2019-04-29T21:13:43.992Z,65.80
2019-04-29T21:16:15.516Z,66.20
2019-04-29T21:18:52.675Z,66.80
2019-04-29T21:21:18.711Z,67.40
2019-04-29T21:23:48.200Z,68.00
2019-04-29T21:26:18.786Z,67.80
2019-04-29T21:28:49.491Z,69.30
2019-04-29T21:31:20.126Z,70.50
2019-04-29T21:33:57.081Z,70.10
2019-04-29T21:36:30.662Z,70.70
2019-04-29T21:39:08.777Z,70.90
2019-04-29T21:41:42.423Z,71.10
2019-04-29T21:44:12.010Z,71.40
2019-04-29T21:46:41.578Z,72.20
2019-04-29T21:49:11.791Z,72.30
2019-04-29T21:52:05.680Z,72.20
2019-04-29T21:54:54.592Z,72.00
2019-04-29T21:57:25.679Z,71.60
2019-04-29T21:59:59.071Z,71.70
2019-04-29T22:02:28.631Z,71.80
2019-04-29T22:05:00.150Z,71.90
2019-04-29T22:07:47.362Z,72.00
2019-04-29T22:10:19.899Z,72.00
2019-04-29T22:12:51.010Z,72.60
2019-04-29T22:15:29.792Z,72.60
2019-04-29T22:17:56.385Z,72.60
2019-04-29T22:20:25.938Z,72.70
2019-04-29T22:22:57.156Z,72.70
2019-04-29T22:25:27.775Z,72.50
2019-04-29T22:28:02.421Z,72.10
2019-04-29T22:30:37.260Z,72.30
2019-04-29T22:33:15.318Z,72.40
2019-04-29T22:35:46.124Z,72.00
2019-04-29T22:38:16.700Z,72.80
2019-04-29T22:40:47.065Z,72.70
2019-04-29T22:43:25.357Z,72.80
2019-04-29T22:45:54.985Z,72.60
2019-04-29T22:48:27.724Z,72.70
2019-04-29T22:50:57.355Z,72.70
2019-04-29T22:53:26.793Z,73.00
2019-04-29T22:55:57.481Z,73.40
2019-04-29T22:58:30.656Z,73.10
2019-04-29T23:01:02.433Z,72.90
2019-04-29T23:03:37.550Z,73.60
2019-04-29T23:06:09.243Z,74.30
2019-04-29T23:08:42.302Z,74.50
2019-04-29T23:11:15.619Z,74.70
2019-04-29T23:13:52.807Z,75.20
2019-04-29T23:16:23.450Z,75.30
2019-04-29T23:18:55.138Z,75.40
2019-04-29T23:21:28.085Z,75.80
2019-04-29T23:24:17.524Z,75.70
2019-04-29T23:26:47.192Z,75.50
2019-04-29T23:29:16.801Z,75.70
2019-04-29T23:31:46.187Z,76.20
2019-04-29T23:34:15.678Z,76.70
2019-04-29T23:36:48.885Z,76.60
2019-04-29T23:39:18.029Z,76.90
2019-04-29T23:41:55.199Z,76.90
2019-04-29T23:44:25.701Z,76.80
2019-04-29T23:46:56.130Z,76.80
2019-04-29T23:49:26.647Z,77.10
2019-04-29T23:51:56.086Z,77.90
2019-04-29T23:54:26.221Z,78.10
2019-04-29T23:57:03.246Z,78.00
2019-04-29T23:59:35.229Z,78.40
